»·PEaware :: N1127P KSNA-KAVX

N1127P :: KSNA-KAVX

FLIGHT INFORMATION

Flight Status: Arrived
Operator: Privately registered:
United States
More flights under this callsign
Pilot: Marcelo S. (23897)
Aircraft: SOCATA TBM-850
(TBM8)
More flights by this aircraft type
Origin: KSNA John Wayne-Orange Co
United States
Destination: KAVX Catalina
United States
More flights between these airports :: More routes between these airports
Route: SLI V21 SXC
File this flight plan on PilotEdge
Remarks: I-7 RATING
Altitude:
(Current/Filed)
4,000ft
Speed:
(Current/Filed)
230kts
Departed: 04-Apr-19 03:43 PM
Arrived: 04-Apr-19 04:06 PM
Distance/Time
Traveled:
32nm/0:22
Distance/Time
To Go:
Arrived

Flight Plot

Page will automatically refresh every two minutes.


Map Options




Map Legend


Flown Route
Filed Route
Departure Airport
Arrival Airport
Navaid (VOR, NDB)
Fix

Horizontal Profiles

Position Reports

Time Latitude Longitude Heading Altitude Ground
Speed
04-Apr-19 15:25 33.677627 -117.870254 355 60ft 0kts
04-Apr-19 15:26 33.677628 -117.870254 355 60ft 0kts
04-Apr-19 15:27 33.677630 -117.870255 355 60ft 0kts
04-Apr-19 15:28 33.677632 -117.870255 355 60ft 0kts
04-Apr-19 15:29 33.677633 -117.870255 355 60ft 0kts
04-Apr-19 15:30 33.677635 -117.870255 355 60ft 0kts
04-Apr-19 15:31 33.677636 -117.870255 355 60ft 0kts
04-Apr-19 15:32 33.677638 -117.870255 355 60ft 0kts
04-Apr-19 15:33 33.677639 -117.870256 355 60ft 0kts
04-Apr-19 15:34 33.677641 -117.870256 355 60ft 0kts
04-Apr-19 15:35 33.677643 -117.870256 355 60ft 0kts
04-Apr-19 15:36 33.677644 -117.870256 355 60ft 0kts
04-Apr-19 15:37 33.677646 -117.870256 355 60ft 0kts
04-Apr-19 15:38 33.677785 -117.870112 70 60ft 0kts
04-Apr-19 15:39 33.680034 -117.867907 18 60ft 27kts
04-Apr-19 15:40 33.680994 -117.866931 108 60ft 0kts
04-Apr-19 15:41 33.680598 -117.865975 140 60ft 17kts
04-Apr-19 15:42 33.663487 -117.879761 218 485ft 123kts
04-Apr-19 15:43 33.625598 -117.888647 189 1863ft 159kts
04-Apr-19 15:44 33.580417 -117.896085 202 3404ft 168kts
04-Apr-19 15:45 33.543128 -117.939226 230 4003ft 205kts
04-Apr-19 15:46 33.520191 -118.006866 247 4003ft 228kts
04-Apr-19 15:47 33.495704 -118.077707 246 4001ft 231kts
04-Apr-19 15:48 33.470586 -118.149244 247 4005ft 232kts
04-Apr-19 15:49 33.445491 -118.220610 247 3999ft 233kts
04-Apr-19 15:50 33.420185 -118.292421 247 3747ft 238kts
04-Apr-19 15:51 33.399070 -118.361707 260 3417ft 224kts
04-Apr-19 15:52 33.416628 -118.420456 349 3410ft 227kts
04-Apr-19 15:53 33.481360 -118.404233 6 3400ft 242kts
04-Apr-19 15:54 33.540226 -118.429372 318 3400ft 235kts
04-Apr-19 15:55 33.597508 -118.450199 33 3392ft 236kts
04-Apr-19 15:56 33.590035 -118.388132 166 3397ft 224kts
04-Apr-19 15:57 33.529699 -118.397539 187 3397ft 220kts
04-Apr-19 15:58 33.467599 -118.406396 189 2317ft 240kts
04-Apr-19 15:59 33.407677 -118.416205 199 2103ft 178kts
04-Apr-19 16:00 33.378701 -118.463858 254 2126ft 194kts
04-Apr-19 16:01 33.413110 -118.477073 63 2061ft 222kts
04-Apr-19 16:02 33.437853 -118.412171 60 2642ft 210kts
04-Apr-19 16:03 33.427905 -118.370698 203 2479ft 166kts
04-Apr-19 16:04 33.406428 -118.413353 234 1611ft 100kts
04-Apr-19 16:05 33.402404 -118.419143 56 1606ft 5kts
04-Apr-19 16:06 33.403316 -118.415385 92 1606ft 0kts
04-Apr-19 16:07 33.406727 -118.411928 57 1606ft 31kts
04-Apr-19 16:09 33.401525 -118.421499 234 1640ft 111kts
04-Apr-19 16:10 33.389253 -118.459846 313 3092ft 153kts
04-Apr-19 16:11 33.437120 -118.467654 60 2767ft 210kts
04-Apr-19 16:12 33.464988 -118.408902 98 2892ft 188kts
04-Apr-19 16:13 33.418727 -118.396323 212 2198ft 176kts
04-Apr-19 16:14 33.399212 -118.425676 236 1625ft 134kts
04-Apr-19 16:15 33.392491 -118.471246 311 2598ft 191kts
04-Apr-19 16:16 33.421799 -118.447642 51 2767ft 182kts
04-Apr-19 16:17 33.454509 -118.393785 42 2298ft 189kts
04-Apr-19 16:18 33.446656 -118.361817 223 2281ft 113kts
04-Apr-19 16:19 33.419234 -118.389318 239 2077ft 143kts
04-Apr-19 16:20 33.404233 -118.417019 235 1606ft 39kts

Navigation Log

Ident Type
Flight plan parsing failed, navigation log unavailable